Ridgefield, Ohio
Current Conditions -  °F | °C
As of 8:53 AM on Friday 24 Oct 2014 (Local Time) from KPCW Reporting Station
Haze Haze  
Wind Chill: 44°   Ceiling: Unl
Heat Index: 44°   Visibility: 6mi
Dew Point: 41°   Wind: 3mph
Humidity: 90%   Direction: 220°SW
Pressure: 30.1"   Gusts: NA
Location:  41.2282°N, 82.706°W
Report Text: KPCW 241253Z AUTO 22003KT 6SM BR CLR 07/05 A3010 RMK AO2 T00660050 $
Loading
Personal Weather Stations






























Interactive Weather Map
Tropical Storm Tracking
New forecast layout! Learn more

10-Day Weather Forecast

Advertisements
Track Severe Weather on mobile